Time,TemperatureF,DewpointF,PressureIn,WindDirection,WindDirectionDegrees,WindSpeedMPH,WindSpeedGustMPH,Humidity,HourlyPrecipIn,Conditions,Clouds,dailyrainin,SoftwareType,DateUTC
2013-01-25 00:02:00,78.0,78.0,29.46,ENE,73,0.0,2.0,99,0.00,,,0.89,,2013-01-24 14:02:00,
2013-01-25 00:12:00,78.0,78.0,29.46,ENE,73,0.0,2.0,99,0.00,,,0.89,,2013-01-24 14:12:00,
2013-01-25 00:22:00,78.0,78.0,29.47,East,96,0.0,4.0,99,0.00,,,0.89,,2013-01-24 14:22:00,
2013-01-25 00:33:00,78.0,78.0,29.46,East,90,0.0,2.0,99,0.00,,,0.89,,2013-01-24 14:33:00,
2013-01-25 00:43:00,78.0,78.0,29.46,East,90,0.0,2.0,99,0.00,,,0.89,,2013-01-24 14:43:00,
2013-01-25 00:53:00,78.0,78.0,29.45,ESE,109,0.0,3.0,99,0.00,,,0.87,,2013-01-24 14:53:00,
2013-01-25 01:03:00,77.0,77.0,29.43,North,8,0.0,2.0,99,0.00,,,0.87,,2013-01-24 15:03:00,
2013-01-25 01:12:00,77.0,77.0,29.43,North,8,0.0,2.0,99,0.00,,,0.87,,2013-01-24 15:12:00,
2013-01-25 01:22:00,77.0,77.0,29.43,ESE,108,0.0,3.0,99,0.00,,,0.84,,2013-01-24 15:22:00,
2013-01-25 01:33:00,77.0,77.0,29.43,ESE,108,0.0,3.0,99,0.00,,,0.84,,2013-01-24 15:33:00,
2013-01-25 01:42:00,78.0,78.0,29.42,East,94,1.0,3.0,99,0.00,,,0.83,,2013-01-24 15:42:00,
2013-01-25 01:52:00,78.0,78.0,29.43,East,90,0.0,3.0,99,0.00,,,0.83,,2013-01-24 15:52:00,
2013-01-25 02:02:00,78.0,78.0,29.43,East,90,0.0,3.0,99,0.00,,,0.83,,2013-01-24 16:02:00,
2013-01-25 02:12:00,78.0,78.0,29.43,East,90,0.0,3.0,99,0.00,,,0.83,,2013-01-24 16:12:00,
2013-01-25 02:22:00,77.0,77.0,29.43,SE,135,0.0,2.0,99,0.00,,,0.83,,2013-01-24 16:22:00,
2013-01-25 02:33:00,77.0,77.0,29.42,SE,135,0.0,2.0,99,0.00,,,0.83,,2013-01-24 16:33:00,
2013-01-25 02:42:00,77.0,77.0,29.42,SE,135,0.0,2.0,99,0.00,,,0.83,,2013-01-24 16:42:00,
2013-01-25 03:01:00,77.0,77.0,29.43,SE,135,0.0,2.0,99,0.00,,,0.83,,2013-01-24 17:01:00,
2013-01-25 03:11:00,77.0,77.0,29.43,SE,135,0.0,2.0,99,0.00,,,0.83,,2013-01-24 17:11:00,
2013-01-25 03:21:00,77.0,77.0,29.43,SE,135,0.0,2.0,99,0.00,,,0.83,,2013-01-24 17:21:00,
2013-01-25 03:32:00,77.0,77.0,29.43,East,84,0.0,2.0,99,0.00,,,0.83,,2013-01-24 17:32:00,
2013-01-25 03:42:00,77.0,77.0,29.43,East,84,0.0,2.0,99,0.00,,,0.83,,2013-01-24 17:42:00,
2013-01-25 03:52:00,77.0,77.0,29.44,North,0,0.0,0.0,99,0.00,,,0.83,,2013-01-24 17:52:00,
2013-01-25 04:02:00,77.0,77.0,29.44,North,0,0.0,0.0,99,0.00,,,0.83,,2013-01-24 18:02:00,
2013-01-25 04:11:00,77.0,77.0,29.43,East,90,0.0,1.0,99,0.00,,,0.83,,2013-01-24 18:11:00,
2013-01-25 04:22:00,77.0,77.0,29.43,East,90,0.0,1.0,99,0.00,,,0.83,,2013-01-24 18:22:00,
2013-01-25 04:32:00,78.0,78.0,29.43,North,0,0.0,0.0,99,0.00,,,0.83,,2013-01-24 18:32:00,
2013-01-25 04:42:00,78.0,78.0,29.43,North,0,0.0,0.0,99,0.00,,,0.83,,2013-01-24 18:42:00,
2013-01-25 04:52:00,78.0,78.0,29.44,North,0,0.0,0.0,99,0.00,,,0.83,,2013-01-24 18:52:00,
2013-01-25 05:01:00,78.0,78.0,29.44,North,0,0.0,0.0,99,0.00,,,0.83,,2013-01-24 19:01:00,
2013-01-25 05:12:00,78.0,78.0,29.44,North,0,0.0,0.0,99,0.00,,,0.83,,2013-01-24 19:12:00,
2013-01-25 05:21:00,78.0,78.0,29.43,North,0,0.0,0.0,99,0.00,,,0.83,,2013-01-24 19:21:00,
2013-01-25 05:32:00,78.0,78.0,29.44,ESE,102,0.0,2.0,99,0.00,,,0.83,,2013-01-24 19:32:00,
2013-01-25 05:41:00,78.0,78.0,29.44,ESE,102,0.0,2.0,99,0.00,,,0.83,,2013-01-24 19:41:00,
2013-01-25 05:51:00,78.0,78.0,29.45,East,90,1.0,2.0,99,0.00,,,0.80,,2013-01-24 19:51:00,
2013-01-25 06:01:00,78.0,78.0,29.46,ESE,103,1.0,3.0,99,0.00,,,0.79,,2013-01-24 20:01:00,
2013-01-25 06:11:00,78.0,78.0,29.46,ESE,103,1.0,3.0,99,0.00,,,0.79,,2013-01-24 20:11:00,
2013-01-25 06:21:00,78.0,78.0,29.46,ESE,103,1.0,3.0,99,0.00,,,0.79,,2013-01-24 20:21:00,
2013-01-25 06:32:00,78.0,78.0,29.46,East,98,0.0,2.0,99,0.00,,,0.78,,2013-01-24 20:32:00,
2013-01-25 06:42:00,78.0,78.0,29.46,East,98,0.0,2.0,99,0.00,,,0.78,,2013-01-24 20:42:00,
2013-01-25 06:52:00,78.0,78.0,29.47,North,0,0.0,0.0,99,0.00,,,0.78,,2013-01-24 20:52:00,
2013-01-25 07:02:00,79.0,79.0,29.47,SE,129,1.0,3.0,99,0.00,,,0.78,,2013-01-24 21:02:00,
2013-01-25 07:11:00,79.0,79.0,29.47,SE,129,1.0,3.0,99,0.00,,,0.78,,2013-01-24 21:11:00,
2013-01-25 07:22:00,80.0,80.0,29.48,East,94,2.0,4.0,99,0.00,,,0.78,,2013-01-24 21:22:00,
2013-01-25 07:32:00,81.0,81.0,29.48,SE,126,1.0,4.0,99,0.00,,,0.77,,2013-01-24 21:32:00,
2013-01-25 07:42:00,81.0,81.0,29.48,SE,126,1.0,4.0,99,0.00,,,0.77,,2013-01-24 21:42:00,
2013-01-25 07:52:00,83.0,83.0,29.48,ESE,107,1.0,4.0,99,0.00,,,0.77,,2013-01-24 21:52:00,
2013-01-25 08:02:00,86.0,86.0,29.49,SE,145,2.0,5.0,99,0.00,,,0.77,,2013-01-24 22:02:00,
2013-01-25 08:12:00,86.0,86.0,29.49,SE,145,2.0,5.0,99,0.00,,,0.77,,2013-01-24 22:12:00,
2013-01-25 08:21:00,87.0,87.0,29.49,East,82,1.0,6.0,99,0.00,,,0.77,,2013-01-24 22:21:00,
2013-01-25 08:32:00,89.0,89.0,29.50,ENE,72,2.0,7.0,99,0.01,,,0.78,,2013-01-24 22:32:00,
2013-01-25 08:42:00,89.0,89.0,29.50,ENE,72,2.0,7.0,99,0.01,,,0.78,,2013-01-24 22:42:00,
2013-01-25 08:52:00,89.0,89.0,29.50,ENE,72,2.0,7.0,99,0.01,,,0.78,,2013-01-24 22:52:00,
2013-01-25 09:02:00,96.0,90.0,29.50,ESE,105,2.0,8.0,83,0.01,,,0.78,,2013-01-24 23:02:00,
2013-01-25 09:12:00,96.0,90.0,29.50,ESE,105,2.0,8.0,83,0.01,,,0.78,,2013-01-24 23:12:00,
2013-01-25 09:21:00,96.0,90.0,29.50,ESE,105,2.0,8.0,83,0.01,,,0.78,,2013-01-24 23:21:00,
2013-01-25 09:32:00,96.0,90.0,29.50,ESE,105,2.0,8.0,83,0.01,,,0.78,,2013-01-24 23:32:00,
2013-01-25 09:42:00,96.0,90.0,29.50,ESE,105,2.0,8.0,83,0.01,,,0.78,,2013-01-24 23:42:00,
2013-01-25 10:02:00,94.0,88.0,29.49,East,90,2.0,11.0,84,0.00,,,0.78,,2013-01-25 00:02:00,
2013-01-25 10:12:00,94.0,88.0,29.49,East,90,2.0,11.0,84,0.00,,,0.78,,2013-01-25 00:12:00,
2013-01-25 10:22:00,94.0,88.0,29.49,East,90,2.0,11.0,84,0.00,,,0.78,,2013-01-25 00:22:00,
2013-01-25 10:32:00,96.0,89.0,29.47,SE,131,0.0,8.0,80,0.00,,,0.78,,2013-01-25 00:32:00,
2013-01-25 10:41:00,96.0,89.0,29.47,SE,131,0.0,8.0,80,0.00,,,0.78,,2013-01-25 00:41:00,
2013-01-25 10:52:00,96.0,89.0,29.47,SE,131,0.0,8.0,80,0.00,,,0.78,,2013-01-25 00:52:00,
2013-01-25 11:01:00,95.0,87.0,29.47,ESE,116,2.0,6.0,77,0.00,,,0.78,,2013-01-25 01:01:00,
2013-01-25 11:11:00,95.0,87.0,29.47,ESE,116,2.0,6.0,77,0.00,,,0.78,,2013-01-25 01:11:00,
2013-01-25 11:21:00,95.0,87.0,29.47,ESE,116,2.0,6.0,77,0.00,,,0.78,,2013-01-25 01:21:00,
2013-01-25 11:31:00,97.0,87.0,29.46,ESE,123,2.0,10.0,74,0.00,,,0.77,,2013-01-25 01:31:00,
2013-01-25 11:41:00,97.0,87.0,29.46,ESE,123,2.0,10.0,74,0.00,,,0.77,,2013-01-25 01:41:00,
2013-01-25 11:52:00,100.0,87.0,29.45,East,90,5.0,13.0,68,0.00,,,0.76,,2013-01-25 01:52:00,
2013-01-25 12:01:00,101.0,87.0,29.45,East,90,1.0,11.0,65,0.00,,,0.74,,2013-01-25 02:01:00,
2013-01-25 12:11:00,101.0,87.0,29.45,East,90,1.0,11.0,65,0.00,,,0.74,,2013-01-25 02:11:00,
2013-01-25 12:22:00,101.0,87.0,29.45,East,90,1.0,11.0,65,0.00,,,0.74,,2013-01-25 02:22:00,
2013-01-25 12:32:00,102.0,87.0,29.44,NNE,28,4.0,14.0,64,0.00,,,0.71,,2013-01-25 02:32:00,
2013-01-25 12:43:00,102.0,87.0,29.44,NNE,28,4.0,14.0,64,0.00,,,0.71,,2013-01-25 02:43:00,
2013-01-25 12:52:00,102.0,87.0,29.44,NNE,28,4.0,14.0,64,0.00,,,0.71,,2013-01-25 02:52:00,
2013-01-25 13:02:00,103.0,88.0,29.42,SSE,160,1.0,8.0,63,0.00,,,0.71,,2013-01-25 03:02:00,
2013-01-25 13:12:00,104.0,88.0,29.42,ENE,67,1.0,7.0,62,0.00,,,0.71,,2013-01-25 03:12:00,
2013-01-25 13:22:00,104.0,88.0,29.42,ENE,67,1.0,7.0,62,0.00,,,0.71,,2013-01-25 03:22:00,
2013-01-25 13:32:00,104.0,88.0,29.42,ENE,67,1.0,7.0,62,0.00,,,0.71,,2013-01-25 03:32:00,
2013-01-25 13:41:00,104.0,88.0,29.42,ENE,67,1.0,7.0,62,0.00,,,0.71,,2013-01-25 03:41:00,
2013-01-25 13:52:00,104.0,88.0,29.42,ENE,67,1.0,7.0,62,0.00,,,0.71,,2013-01-25 03:52:00,
2013-01-25 14:02:00,101.0,86.0,29.39,East,98,2.0,8.0,62,0.00,,,0.66,,2013-01-25 04:02:00,
2013-01-25 14:12:00,101.0,86.0,29.39,East,98,2.0,8.0,62,0.00,,,0.66,,2013-01-25 04:12:00,
2013-01-25 14:22:00,101.0,86.0,29.39,East,98,2.0,8.0,62,0.00,,,0.66,,2013-01-25 04:22:00,
2013-01-25 14:31:00,105.0,85.0,29.38,ENE,63,2.0,11.0,55,0.00,,,0.66,,2013-01-25 04:31:00,
2013-01-25 14:41:00,105.0,85.0,29.38,ENE,63,2.0,11.0,55,0.00,,,0.66,,2013-01-25 04:41:00,
2013-01-25 14:51:00,105.0,85.0,29.38,ENE,63,2.0,11.0,55,0.00,,,0.66,,2013-01-25 04:51:00,
2013-01-25 15:03:00,104.0,86.0,29.35,SE,132,2.0,12.0,57,0.00,,,0.66,,2013-01-25 05:03:00,
2013-01-25 15:12:00,104.0,86.0,29.35,SE,132,2.0,12.0,57,0.00,,,0.66,,2013-01-25 05:12:00,
2013-01-25 15:22:00,104.0,86.0,29.35,SE,132,2.0,12.0,57,0.00,,,0.66,,2013-01-25 05:22:00,
2013-01-25 15:32:00,100.0,86.0,29.35,SE,138,0.0,8.0,64,0.00,,,0.56,,2013-01-25 05:32:00,
2013-01-25 15:42:00,100.0,86.0,29.35,SE,138,0.0,8.0,64,0.00,,,0.56,,2013-01-25 05:42:00,
2013-01-25 15:52:00,100.0,86.0,29.35,SE,138,0.0,8.0,64,0.00,,,0.56,,2013-01-25 05:52:00,
2013-01-25 16:02:00,93.0,89.0,29.36,SSE,167,0.0,8.0,88,0.08,,,0.64,,2013-01-25 06:02:00,
2013-01-25 16:11:00,93.0,89.0,29.36,SSE,167,0.0,8.0,88,0.08,,,0.64,,2013-01-25 06:11:00,
2013-01-25 16:21:00,96.0,87.0,29.35,SSW,206,2.0,5.0,75,0.08,,,0.59,,2013-01-25 06:21:00,
2013-01-25 16:31:00,96.0,87.0,29.35,SSW,206,2.0,5.0,75,0.08,,,0.59,,2013-01-25 06:31:00,
2013-01-25 16:41:00,96.0,87.0,29.35,SSW,206,2.0,5.0,75,0.08,,,0.59,,2013-01-25 06:41:00,
2013-01-25 16:51:00,96.0,87.0,29.35,SSW,206,2.0,5.0,75,0.08,,,0.59,,2013-01-25 06:51:00,
2013-01-25 17:02:00,89.0,81.0,29.37,East,89,1.0,5.0,77,0.00,,,0.56,,2013-01-25 07:02:00,
2013-01-25 17:11:00,89.0,81.0,29.37,East,89,1.0,5.0,77,0.00,,,0.56,,2013-01-25 07:11:00,
2013-01-25 17:21:00,89.0,82.0,29.37,ESE,110,0.0,3.0,79,0.00,,,0.56,,2013-01-25 07:21:00,
2013-01-25 17:31:00,88.0,80.0,29.38,East,96,1.0,6.0,78,0.00,,,0.56,,2013-01-25 07:31:00,
2013-01-25 17:41:00,88.0,80.0,29.38,East,96,1.0,6.0,78,0.00,,,0.56,,2013-01-25 07:41:00,
2013-01-25 17:51:00,88.0,80.0,29.38,East,96,1.0,6.0,78,0.00,,,0.56,,2013-01-25 07:51:00,
2013-01-25 18:01:00,89.0,80.0,29.39,SE,141,2.0,6.0,75,0.00,,,0.56,,2013-01-25 08:01:00,
2013-01-25 18:11:00,88.0,79.0,29.41,ESE,107,0.0,9.0,76,0.00,,,0.56,,2013-01-25 08:11:00,
2013-01-25 18:21:00,88.0,79.0,29.41,ESE,107,0.0,9.0,76,0.00,,,0.56,,2013-01-25 08:21:00,
2013-01-25 18:32:00,88.0,79.0,29.42,SE,139,2.0,8.0,76,0.00,,,0.56,,2013-01-25 08:32:00,
2013-01-25 18:41:00,88.0,79.0,29.42,SE,139,2.0,8.0,76,0.00,,,0.56,,2013-01-25 08:41:00,
2013-01-25 18:52:00,88.0,80.0,29.43,ENE,63,1.0,11.0,77,0.01,,,0.57,,2013-01-25 08:52:00,
2013-01-25 19:01:00,87.0,80.0,29.44,East,100,1.0,7.0,79,0.01,,,0.56,,2013-01-25 09:01:00,
2013-01-25 19:11:00,87.0,80.0,29.44,East,100,1.0,7.0,79,0.01,,,0.56,,2013-01-25 09:11:00,
2013-01-25 19:21:00,87.0,80.0,29.44,East,100,1.0,7.0,79,0.01,,,0.56,,2013-01-25 09:21:00,
2013-01-25 19:31:00,87.0,80.0,29.44,East,100,1.0,7.0,79,0.01,,,0.56,,2013-01-25 09:31:00,
2013-01-25 19:41:00,87.0,80.0,29.44,East,100,1.0,7.0,79,0.01,,,0.56,,2013-01-25 09:41:00,
2013-01-25 19:52:00,86.0,78.0,29.47,SSE,163,2.0,7.0,77,0.00,,,0.28,,2013-01-25 09:52:00,
2013-01-25 20:01:00,86.0,78.0,29.47,SSE,163,2.0,7.0,77,0.00,,,0.28,,2013-01-25 10:01:00,
2013-01-25 20:11:00,86.0,78.0,29.47,SSE,163,2.0,7.0,77,0.00,,,0.28,,2013-01-25 10:11:00,
2013-01-25 20:21:00,86.0,78.0,29.48,East,96,0.0,4.0,78,0.00,,,0.20,,2013-01-25 10:21:00,
2013-01-25 20:31:00,85.0,78.0,29.48,SSW,192,0.0,4.0,79,0.00,,,0.13,,2013-01-25 10:31:00,
2013-01-25 20:41:00,85.0,78.0,29.48,SSW,192,0.0,4.0,79,0.00,,,0.13,,2013-01-25 10:41:00,
2013-01-25 20:51:00,85.0,77.0,29.48,North,355,2.0,6.0,78,0.00,,,0.12,,2013-01-25 10:51:00,
2013-01-25 21:02:00,85.0,77.0,29.49,SSW,192,1.0,4.0,77,0.00,,,0.11,,2013-01-25 11:02:00,
2013-01-25 21:11:00,85.0,77.0,29.49,SSW,192,1.0,4.0,77,0.00,,,0.11,,2013-01-25 11:11:00,
2013-01-25 21:22:00,85.0,77.0,29.49,SSW,192,1.0,4.0,77,0.00,,,0.11,,2013-01-25 11:22:00,
2013-01-25 21:32:00,83.0,78.0,29.50,North,355,0.0,2.0,84,0.00,,,0.11,,2013-01-25 11:32:00,
2013-01-25 21:41:00,83.0,78.0,29.50,North,355,0.0,2.0,84,0.00,,,0.11,,2013-01-25 11:41:00,
2013-01-25 21:52:00,83.0,78.0,29.50,North,355,0.0,2.0,84,0.00,,,0.11,,2013-01-25 11:52:00,
2013-01-25 22:02:00,83.0,78.0,29.50,East,81,0.0,6.0,85,0.00,,,0.11,,2013-01-25 12:02:00,
2013-01-25 22:11:00,83.0,78.0,29.50,East,81,0.0,6.0,85,0.00,,,0.11,,2013-01-25 12:11:00,
2013-01-25 22:22:00,83.0,78.0,29.51,East,88,1.0,4.0,84,0.00,,,0.11,,2013-01-25 12:22:00,
2013-01-25 22:32:00,83.0,78.0,29.52,SE,124,0.0,3.0,85,0.00,,,0.11,,2013-01-25 12:32:00,
2013-01-25 22:41:00,83.0,78.0,29.52,SE,124,0.0,3.0,85,0.00,,,0.11,,2013-01-25 12:41:00,
2013-01-25 22:52:00,83.0,78.0,29.50,East,90,1.0,4.0,85,0.00,,,0.11,,2013-01-25 12:52:00,
2013-01-25 23:02:00,83.0,78.0,29.51,NW,324,0.0,4.0,86,0.00,,,0.11,,2013-01-25 13:02:00,
2013-01-25 23:11:00,83.0,78.0,29.51,NW,324,0.0,4.0,86,0.00,,,0.11,,2013-01-25 13:11:00,
2013-01-25 23:22:00,83.0,78.0,29.51,East,99,0.0,3.0,86,0.00,,,0.11,,2013-01-25 13:22:00,
2013-01-25 23:32:00,83.0,78.0,29.51,ENE,77,2.0,4.0,86,0.00,,,0.11,,2013-01-25 13:32:00,
2013-01-25 23:42:00,83.0,78.0,29.51,ENE,77,2.0,4.0,86,0.00,,,0.11,,2013-01-25 13:42:00,
2013-01-25 23:52:00,83.0,78.0,29.51,ENE,77,2.0,4.0,86,0.00,,,0.11,,2013-01-25 13:52:00,